sensor_id;sensor_type;location;lat;lon;timestamp;P1;durP1;ratioP1;P2;durP2;ratioP2
11847;SDS011;5983;49.966;8.052;2023-02-19T00:01:16;2.13;;;1.90;;
11847;SDS011;5983;49.966;8.052;2023-02-19T00:03:47;3.97;;;1.83;;
11847;SDS011;5983;49.966;8.052;2023-02-19T00:06:17;2.10;;;1.70;;
11847;SDS011;5983;49.966;8.052;2023-02-19T00:08:45;3.33;;;1.93;;
11847;SDS011;5983;49.966;8.052;2023-02-19T00:11:15;2.33;;;1.80;;
11847;SDS011;5983;49.966;8.052;2023-02-19T00:13:46;2.20;;;1.90;;
11847;SDS011;5983;49.966;8.052;2023-02-19T00:16:16;3.50;;;2.10;;
11847;SDS011;5983;49.966;8.052;2023-02-19T00:18:45;2.07;;;1.83;;
11847;SDS011;5983;49.966;8.052;2023-02-19T00:21:13;2.37;;;1.87;;
11847;SDS011;5983;49.966;8.052;2023-02-19T00:23:40;2.43;;;1.70;;
11847;SDS011;5983;49.966;8.052;2023-02-19T00:26:08;2.77;;;1.70;;
11847;SDS011;5983;49.966;8.052;2023-02-19T00:28:39;3.07;;;1.70;;
11847;SDS011;5983;49.966;8.052;2023-02-19T00:31:06;3.17;;;1.70;;
11847;SDS011;5983;49.966;8.052;2023-02-19T00:33:37;3.00;;;1.77;;
11847;SDS011;5983;49.966;8.052;2023-02-19T00:36:04;2.80;;;1.93;;
11847;SDS011;5983;49.966;8.052;2023-02-19T00:38:34;2.17;;;1.33;;
11847;SDS011;5983;49.966;8.052;2023-02-19T00:41:04;2.73;;;1.40;;
11847;SDS011;5983;49.966;8.052;2023-02-19T00:43:45;1.67;;;1.47;;
11847;SDS011;5983;49.966;8.052;2023-02-19T00:46:15;1.40;;;1.30;;
11847;SDS011;5983;49.966;8.052;2023-02-19T00:48:43;1.40;;;1.30;;
11847;SDS011;5983;49.966;8.052;2023-02-19T00:51:10;1.33;;;1.10;;
11847;SDS011;5983;49.966;8.052;2023-02-19T00:53:38;1.20;;;0.90;;
11847;SDS011;5983;49.966;8.052;2023-02-19T00:56:05;1.37;;;1.00;;
11847;SDS011;5983;49.966;8.052;2023-02-19T00:58:33;1.53;;;1.00;;
11847;SDS011;5983;49.966;8.052;2023-02-19T01:01:01;1.13;;;0.90;;
11847;SDS011;5983;49.966;8.052;2023-02-19T01:03:29;1.17;;;1.07;;
11847;SDS011;5983;49.966;8.052;2023-02-19T01:05:56;1.20;;;1.10;;
11847;SDS011;5983;49.966;8.052;2023-02-19T01:08:23;1.00;;;0.80;;
11847;SDS011;5983;49.966;8.052;2023-02-19T01:10:51;0.73;;;0.70;;
11847;SDS011;5983;49.966;8.052;2023-02-19T01:13:18;0.90;;;0.90;;
11847;SDS011;5983;49.966;8.052;2023-02-19T01:15:45;1.10;;;0.90;;
11847;SDS011;5983;49.966;8.052;2023-02-19T01:18:14;0.87;;;0.73;;
11847;SDS011;5983;49.966;8.052;2023-02-19T01:20:42;1.17;;;0.90;;
11847;SDS011;5983;49.966;8.052;2023-02-19T01:23:11;2.53;;;1.00;;
11847;SDS011;5983;49.966;8.052;2023-02-19T01:25:39;2.27;;;0.77;;
11847;SDS011;5983;49.966;8.052;2023-02-19T01:28:07;1.07;;;0.97;;
11847;SDS011;5983;49.966;8.052;2023-02-19T01:30:36;1.27;;;0.70;;
11847;SDS011;5983;49.966;8.052;2023-02-19T01:33:04;1.60;;;1.00;;
11847;SDS011;5983;49.966;8.052;2023-02-19T01:35:33;0.90;;;0.90;;
11847;SDS011;5983;49.966;8.052;2023-02-19T01:38:04;0.57;;;0.57;;
11847;SDS011;5983;49.966;8.052;2023-02-19T01:40:32;0.77;;;0.77;;
11847;SDS011;5983;49.966;8.052;2023-02-19T01:42:59;1.97;;;1.43;;
11847;SDS011;5983;49.966;8.052;2023-02-19T01:45:28;1.10;;;0.83;;
11847;SDS011;5983;49.966;8.052;2023-02-19T01:47:57;0.90;;;0.90;;
11847;SDS011;5983;49.966;8.052;2023-02-19T01:50:35;1.20;;;1.10;;
11847;SDS011;5983;49.966;8.052;2023-02-19T01:53:09;1.27;;;1.07;;
11847;SDS011;5983;49.966;8.052;2023-02-19T01:55:41;0.87;;;0.80;;
11847;SDS011;5983;49.966;8.052;2023-02-19T01:58:13;1.87;;;0.80;;
11847;SDS011;5983;49.966;8.052;2023-02-19T02:00:41;1.10;;;1.00;;
11847;SDS011;5983;49.966;8.052;2023-02-19T02:03:08;1.63;;;1.00;;
11847;SDS011;5983;49.966;8.052;2023-02-19T02:05:43;2.93;;;0.90;;
11847;SDS011;5983;49.966;8.052;2023-02-19T02:08:18;0.80;;;0.80;;
11847;SDS011;5983;49.966;8.052;2023-02-19T02:11:03;2.13;;;1.07;;
11847;SDS011;5983;49.966;8.052;2023-02-19T02:13:31;1.60;;;0.90;;
11847;SDS011;5983;49.966;8.052;2023-02-19T02:16:02;1.20;;;0.83;;
11847;SDS011;5983;49.966;8.052;2023-02-19T02:18:45;1.63;;;0.93;;
11847;SDS011;5983;49.966;8.052;2023-02-19T02:24:36;0.83;;;0.70;;
11847;SDS011;5983;49.966;8.052;2023-02-19T02:27:52;1.90;;;0.90;;
11847;SDS011;5983;49.966;8.052;2023-02-19T02:30:38;0.80;;;0.80;;
11847;SDS011;5983;49.966;8.052;2023-02-19T02:33:14;0.80;;;0.80;;
11847;SDS011;5983;49.966;8.052;2023-02-19T02:35:53;1.23;;;1.00;;
11847;SDS011;5983;49.966;8.052;2023-02-19T02:38:26;0.70;;;0.70;;
11847;SDS011;5983;49.966;8.052;2023-02-19T02:40:57;3.60;;;0.70;;
11847;SDS011;5983;49.966;8.052;2023-02-19T02:43:26;1.90;;;1.10;;
11847;SDS011;5983;49.966;8.052;2023-02-19T02:45:54;1.03;;;0.93;;
11847;SDS011;5983;49.966;8.052;2023-02-19T02:48:23;0.70;;;0.70;;
11847;SDS011;5983;49.966;8.052;2023-02-19T02:50:59;0.70;;;0.70;;
11847;SDS011;5983;49.966;8.052;2023-02-19T02:53:34;0.70;;;0.50;;
11847;SDS011;5983;49.966;8.052;2023-02-19T02:56:27;0.80;;;0.60;;
11847;SDS011;5983;49.966;8.052;2023-02-19T02:58:56;0.53;;;0.53;;
11847;SDS011;5983;49.966;8.052;2023-02-19T03:01:28;0.80;;;0.67;;
11847;SDS011;5983;49.966;8.052;2023-02-19T03:04:18;0.70;;;0.60;;
11847;SDS011;5983;49.966;8.052;2023-02-19T03:06:53;0.93;;;0.80;;
11847;SDS011;5983;49.966;8.052;2023-02-19T03:09:22;2.83;;;0.70;;
11847;SDS011;5983;49.966;8.052;2023-02-19T03:11:56;1.07;;;0.60;;
11847;SDS011;5983;49.966;8.052;2023-02-19T03:14:47;0.67;;;0.60;;
11847;SDS011;5983;49.966;8.052;2023-02-19T03:17:38;0.63;;;0.60;;
11847;SDS011;5983;49.966;8.052;2023-02-19T03:20:29;0.73;;;0.50;;
11847;SDS011;5983;49.966;8.052;2023-02-19T03:23:02;0.50;;;0.50;;
11847;SDS011;5983;49.966;8.052;2023-02-19T03:25:32;1.70;;;0.50;;
11847;SDS011;5983;49.966;8.052;2023-02-19T03:28:21;0.57;;;0.57;;
11847;SDS011;5983;49.966;8.052;2023-02-19T03:31:07;0.70;;;0.47;;
11847;SDS011;5983;49.966;8.052;2023-02-19T03:33:40;1.60;;;0.93;;
11847;SDS011;5983;49.966;8.052;2023-02-19T03:36:10;0.97;;;0.60;;
11847;SDS011;5983;49.966;8.052;2023-02-19T03:38:41;0.60;;;0.57;;
11847;SDS011;5983;49.966;8.052;2023-02-19T03:41:18;0.70;;;0.70;;
11847;SDS011;5983;49.966;8.052;2023-02-19T03:43:56;0.60;;;0.60;;
11847;SDS011;5983;49.966;8.052;2023-02-19T03:46:35;0.47;;;0.47;;
11847;SDS011;5983;49.966;8.052;2023-02-19T03:49:14;0.60;;;0.50;;
11847;SDS011;5983;49.966;8.052;2023-02-19T03:51:50;0.80;;;0.73;;
11847;SDS011;5983;49.966;8.052;2023-02-19T03:54:29;1.30;;;0.60;;
11847;SDS011;5983;49.966;8.052;2023-02-19T03:57:04;2.60;;;0.70;;
11847;SDS011;5983;49.966;8.052;2023-02-19T03:59:42;0.40;;;0.40;;
11847;SDS011;5983;49.966;8.052;2023-02-19T04:02:17;1.80;;;0.50;;
11847;SDS011;5983;49.966;8.052;2023-02-19T04:04:55;0.70;;;0.60;;
11847;SDS011;5983;49.966;8.052;2023-02-19T04:07:31;0.50;;;0.47;;
11847;SDS011;5983;49.966;8.052;2023-02-19T04:10:03;0.50;;;0.40;;
11847;SDS011;5983;49.966;8.052;2023-02-19T04:12:33;0.40;;;0.40;;
11847;SDS011;5983;49.966;8.052;2023-02-19T04:15:05;0.83;;;0.50;;
11847;SDS011;5983;49.966;8.052;2023-02-19T04:17:38;0.50;;;0.50;;
11847;SDS011;5983;49.966;8.052;2023-02-19T04:20:13;0.73;;;0.50;;
11847;SDS011;5983;49.966;8.052;2023-02-19T04:22:41;0.30;;;0.30;;
11847;SDS011;5983;49.966;8.052;2023-02-19T04:25:09;1.17;;;0.50;;
11847;SDS011;5983;49.966;8.052;2023-02-19T04:27:36;0.30;;;0.30;;
11847;SDS011;5983;49.966;8.052;2023-02-19T04:30:10;0.80;;;0.47;;
11847;SDS011;5983;49.966;8.052;2023-02-19T04:32:41;0.30;;;0.30;;
11847;SDS011;5983;49.966;8.052;2023-02-19T04:35:08;0.30;;;0.30;;
11847;SDS011;5983;49.966;8.052;2023-02-19T04:37:36;0.40;;;0.30;;
11847;SDS011;5983;49.966;8.052;2023-02-19T04:40:03;0.30;;;0.30;;
11847;SDS011;5983;49.966;8.052;2023-02-19T04:42:31;0.20;;;0.20;;
11847;SDS011;5983;49.966;8.052;2023-02-19T04:44:58;0.30;;;0.30;;
11847;SDS011;5983;49.966;8.052;2023-02-19T04:47:25;0.30;;;0.30;;
11847;SDS011;5983;49.966;8.052;2023-02-19T04:49:52;0.43;;;0.30;;
11847;SDS011;5983;49.966;8.052;2023-02-19T04:52:19;0.30;;;0.30;;
11847;SDS011;5983;49.966;8.052;2023-02-19T04:54:47;0.40;;;0.40;;
11847;SDS011;5983;49.966;8.052;2023-02-19T04:57:14;0.60;;;0.40;;
11847;SDS011;5983;49.966;8.052;2023-02-19T04:59:41;0.67;;;0.40;;
11847;SDS011;5983;49.966;8.052;2023-02-19T05:02:08;0.30;;;0.30;;
11847;SDS011;5983;49.966;8.052;2023-02-19T05:04:35;0.77;;;0.77;;
11847;SDS011;5983;49.966;8.052;2023-02-19T05:07:02;0.50;;;0.50;;
11847;SDS011;5983;49.966;8.052;2023-02-19T05:09:29;0.70;;;0.40;;
11847;SDS011;5983;49.966;8.052;2023-02-19T05:11:57;0.33;;;0.33;;
11847;SDS011;5983;49.966;8.052;2023-02-19T05:14:24;1.47;;;0.43;;
11847;SDS011;5983;49.966;8.052;2023-02-19T05:16:51;0.40;;;0.40;;
11847;SDS011;5983;49.966;8.052;2023-02-19T05:19:18;0.50;;;0.50;;
11847;SDS011;5983;49.966;8.052;2023-02-19T05:21:45;0.70;;;0.50;;
11847;SDS011;5983;49.966;8.052;2023-02-19T05:24:12;0.40;;;0.40;;
11847;SDS011;5983;49.966;8.052;2023-02-19T05:26:39;0.40;;;0.40;;
11847;SDS011;5983;49.966;8.052;2023-02-19T05:29:07;0.83;;;0.30;;
11847;SDS011;5983;49.966;8.052;2023-02-19T05:31:34;0.87;;;0.47;;
11847;SDS011;5983;49.966;8.052;2023-02-19T05:34:01;0.57;;;0.50;;
11847;SDS011;5983;49.966;8.052;2023-02-19T05:36:28;0.77;;;0.40;;
11847;SDS011;5983;49.966;8.052;2023-02-19T05:38:56;1.70;;;0.67;;
11847;SDS011;5983;49.966;8.052;2023-02-19T05:41:25;1.37;;;0.40;;
11847;SDS011;5983;49.966;8.052;2023-02-19T05:43:54;0.70;;;0.40;;
11847;SDS011;5983;49.966;8.052;2023-02-19T05:46:24;1.67;;;0.63;;
11847;SDS011;5983;49.966;8.052;2023-02-19T05:48:54;1.27;;;0.47;;
11847;SDS011;5983;49.966;8.052;2023-02-19T05:51:23;2.07;;;0.60;;
11847;SDS011;5983;49.966;8.052;2023-02-19T05:53:52;1.77;;;0.50;;
11847;SDS011;5983;49.966;8.052;2023-02-19T05:56:32;0.83;;;0.40;;
11847;SDS011;5983;49.966;8.052;2023-02-19T05:59:01;0.50;;;0.33;;
11847;SDS011;5983;49.966;8.052;2023-02-19T06:01:34;0.40;;;0.20;;
11847;SDS011;5983;49.966;8.052;2023-02-19T06:04:01;0.63;;;0.47;;
11847;SDS011;5983;49.966;8.052;2023-02-19T06:06:28;1.60;;;0.77;;
11847;SDS011;5983;49.966;8.052;2023-02-19T06:08:55;0.30;;;0.30;;
11847;SDS011;5983;49.966;8.052;2023-02-19T06:11:22;1.17;;;0.50;;
11847;SDS011;5983;49.966;8.052;2023-02-19T06:13:50;1.47;;;0.80;;
11847;SDS011;5983;49.966;8.052;2023-02-19T06:16:17;1.10;;;0.50;;
11847;SDS011;5983;49.966;8.052;2023-02-19T06:18:47;0.60;;;0.50;;
11847;SDS011;5983;49.966;8.052;2023-02-19T06:21:14;4.67;;;0.67;;
11847;SDS011;5983;49.966;8.052;2023-02-19T06:23:43;3.00;;;0.50;;
11847;SDS011;5983;49.966;8.052;2023-02-19T06:26:11;0.43;;;0.40;;
11847;SDS011;5983;49.966;8.052;2023-02-19T06:28:41;0.53;;;0.50;;
11847;SDS011;5983;49.966;8.052;2023-02-19T06:31:09;2.20;;;0.43;;
11847;SDS011;5983;49.966;8.052;2023-02-19T06:33:37;3.33;;;1.33;;
11847;SDS011;5983;49.966;8.052;2023-02-19T06:36:09;2.27;;;0.57;;
11847;SDS011;5983;49.966;8.052;2023-02-19T06:38:39;1.63;;;0.50;;
11847;SDS011;5983;49.966;8.052;2023-02-19T06:41:07;1.23;;;0.53;;
11847;SDS011;5983;49.966;8.052;2023-02-19T06:43:36;1.17;;;0.63;;
11847;SDS011;5983;49.966;8.052;2023-02-19T06:46:04;0.73;;;0.43;;
11847;SDS011;5983;49.966;8.052;2023-02-19T06:48:35;2.40;;;0.60;;
11847;SDS011;5983;49.966;8.052;2023-02-19T06:51:05;3.57;;;0.70;;
11847;SDS011;5983;49.966;8.052;2023-02-19T06:53:35;1.50;;;0.83;;
11847;SDS011;5983;49.966;8.052;2023-02-19T06:56:02;1.70;;;0.63;;
11847;SDS011;5983;49.966;8.052;2023-02-19T06:58:32;1.80;;;0.60;;
11847;SDS011;5983;49.966;8.052;2023-02-19T07:01:00;2.80;;;0.90;;
11847;SDS011;5983;49.966;8.052;2023-02-19T07:03:27;2.10;;;0.60;;
11847;SDS011;5983;49.966;8.052;2023-02-19T07:05:54;0.90;;;0.50;;
11847;SDS011;5983;49.966;8.052;2023-02-19T07:08:26;1.43;;;0.70;;
11847;SDS011;5983;49.966;8.052;2023-02-19T07:10:53;3.20;;;0.80;;
11847;SDS011;5983;49.966;8.052;2023-02-19T07:13:20;4.70;;;0.87;;
11847;SDS011;5983;49.966;8.052;2023-02-19T07:15:48;1.97;;;0.70;;
11847;SDS011;5983;49.966;8.052;2023-02-19T07:18:15;2.37;;;0.77;;
11847;SDS011;5983;49.966;8.052;2023-02-19T07:20:42;1.60;;;0.67;;
11847;SDS011;5983;49.966;8.052;2023-02-19T07:23:08;3.27;;;0.70;;
11847;SDS011;5983;49.966;8.052;2023-02-19T07:25:37;2.23;;;0.70;;
11847;SDS011;5983;49.966;8.052;2023-02-19T07:28:05;7.53;;;1.10;;
11847;SDS011;5983;49.966;8.052;2023-02-19T07:30:32;5.00;;;0.60;;
11847;SDS011;5983;49.966;8.052;2023-02-19T07:32:59;2.40;;;0.70;;
11847;SDS011;5983;49.966;8.052;2023-02-19T07:35:28;1.83;;;0.60;;
11847;SDS011;5983;49.966;8.052;2023-02-19T07:37:55;4.43;;;1.37;;
11847;SDS011;5983;49.966;8.052;2023-02-19T07:40:22;3.67;;;0.80;;
11847;SDS011;5983;49.966;8.052;2023-02-19T07:42:50;2.57;;;0.77;;
11847;SDS011;5983;49.966;8.052;2023-02-19T07:45:17;1.13;;;0.73;;
11847;SDS011;5983;49.966;8.052;2023-02-19T07:47:44;4.60;;;1.10;;
11847;SDS011;5983;49.966;8.052;2023-02-19T07:50:11;2.40;;;0.60;;
11847;SDS011;5983;49.966;8.052;2023-02-19T07:52:38;2.63;;;1.13;;
11847;SDS011;5983;49.966;8.052;2023-02-19T07:55:05;1.20;;;0.77;;
11847;SDS011;5983;49.966;8.052;2023-02-19T07:57:32;1.13;;;0.80;;
11847;SDS011;5983;49.966;8.052;2023-02-19T08:00:01;2.77;;;1.07;;
11847;SDS011;5983;49.966;8.052;2023-02-19T08:02:28;2.23;;;0.63;;
11847;SDS011;5983;49.966;8.052;2023-02-19T08:05:13;2.93;;;0.80;;
11847;SDS011;5983;49.966;8.052;2023-02-19T08:07:40;2.07;;;0.70;;
11847;SDS011;5983;49.966;8.052;2023-02-19T08:10:07;3.30;;;0.87;;
11847;SDS011;5983;49.966;8.052;2023-02-19T08:12:55;5.03;;;0.80;;
11847;SDS011;5983;49.966;8.052;2023-02-19T08:15:40;2.83;;;0.97;;
11847;SDS011;5983;49.966;8.052;2023-02-19T08:18:08;2.10;;;0.80;;
11847;SDS011;5983;49.966;8.052;2023-02-19T08:20:36;0.93;;;0.60;;
11847;SDS011;5983;49.966;8.052;2023-02-19T08:23:02;3.63;;;0.90;;
11847;SDS011;5983;49.966;8.052;2023-02-19T08:25:30;2.53;;;0.97;;
11847;SDS011;5983;49.966;8.052;2023-02-19T08:27:57;1.53;;;0.60;;
11847;SDS011;5983;49.966;8.052;2023-02-19T08:30:25;2.33;;;0.70;;
11847;SDS011;5983;49.966;8.052;2023-02-19T08:32:54;3.77;;;1.07;;
11847;SDS011;5983;49.966;8.052;2023-02-19T08:35:23;2.17;;;1.10;;
11847;SDS011;5983;49.966;8.052;2023-02-19T08:37:50;3.47;;;1.20;;
11847;SDS011;5983;49.966;8.052;2023-02-19T08:40:20;2.93;;;1.20;;
11847;SDS011;5983;49.966;8.052;2023-02-19T08:42:47;2.37;;;1.60;;
11847;SDS011;5983;49.966;8.052;2023-02-19T08:45:14;3.33;;;1.57;;
11847;SDS011;5983;49.966;8.052;2023-02-19T08:47:42;3.87;;;1.47;;
11847;SDS011;5983;49.966;8.052;2023-02-19T08:50:11;3.47;;;2.50;;
11847;SDS011;5983;49.966;8.052;2023-02-19T08:52:38;6.27;;;3.77;;
11847;SDS011;5983;49.966;8.052;2023-02-19T08:55:05;4.10;;;2.80;;
11847;SDS011;5983;49.966;8.052;2023-02-19T08:57:34;4.10;;;2.80;;
11847;SDS011;5983;49.966;8.052;2023-02-19T09:00:02;16.60;;;10.13;;
11847;SDS011;5983;49.966;8.052;2023-02-19T09:02:30;20.27;;;11.77;;
11847;SDS011;5983;49.966;8.052;2023-02-19T09:04:57;25.50;;;16.53;;
11847;SDS011;5983;49.966;8.052;2023-02-19T09:07:26;18.83;;;12.33;;
11847;SDS011;5983;49.966;8.052;2023-02-19T09:09:53;12.67;;;7.23;;
11847;SDS011;5983;49.966;8.052;2023-02-19T09:12:20;8.60;;;5.37;;
11847;SDS011;5983;49.966;8.052;2023-02-19T09:14:48;11.10;;;6.03;;
11847;SDS011;5983;49.966;8.052;2023-02-19T09:17:16;8.97;;;5.10;;
11847;SDS011;5983;49.966;8.052;2023-02-19T09:19:43;8.80;;;4.90;;
11847;SDS011;5983;49.966;8.052;2023-02-19T09:22:10;28.07;;;15.10;;
11847;SDS011;5983;49.966;8.052;2023-02-19T09:24:38;26.20;;;13.83;;
11847;SDS011;5983;49.966;8.052;2023-02-19T09:27:12;20.63;;;10.33;;
11847;SDS011;5983;49.966;8.052;2023-02-19T09:29:41;23.77;;;12.60;;
11847;SDS011;5983;49.966;8.052;2023-02-19T09:32:08;13.93;;;7.13;;
11847;SDS011;5983;49.966;8.052;2023-02-19T09:34:37;11.77;;;5.53;;
11847;SDS011;5983;49.966;8.052;2023-02-19T09:37:04;13.67;;;5.03;;
11847;SDS011;5983;49.966;8.052;2023-02-19T09:39:32;14.37;;;5.47;;
11847;SDS011;5983;49.966;8.052;2023-02-19T09:42:01;8.03;;;4.30;;
11847;SDS011;5983;49.966;8.052;2023-02-19T09:44:38;15.80;;;8.80;;
11847;SDS011;5983;49.966;8.052;2023-02-19T09:47:11;13.70;;;7.30;;
11847;SDS011;5983;49.966;8.052;2023-02-19T09:49:44;12.63;;;5.40;;
11847;SDS011;5983;49.966;8.052;2023-02-19T09:52:18;9.27;;;4.53;;
11847;SDS011;5983;49.966;8.052;2023-02-19T09:55:01;6.07;;;3.27;;
11847;SDS011;5983;49.966;8.052;2023-02-19T09:57:39;5.23;;;2.57;;
11847;SDS011;5983;49.966;8.052;2023-02-19T10:00:12;6.40;;;3.50;;
11847;SDS011;5983;49.966;8.052;2023-02-19T10:02:50;3.60;;;2.23;;
11847;SDS011;5983;49.966;8.052;2023-02-19T10:05:19;4.17;;;2.40;;
11847;SDS011;5983;49.966;8.052;2023-02-19T10:07:49;3.07;;;1.70;;
11847;SDS011;5983;49.966;8.052;2023-02-19T10:10:21;3.43;;;1.63;;
11847;SDS011;5983;49.966;8.052;2023-02-19T10:12:58;2.00;;;1.43;;
11847;SDS011;5983;49.966;8.052;2023-02-19T10:15:41;3.40;;;1.70;;
11847;SDS011;5983;49.966;8.052;2023-02-19T10:18:15;3.83;;;1.67;;
11847;SDS011;5983;49.966;8.052;2023-02-19T10:20:45;2.60;;;1.50;;
11847;SDS011;5983;49.966;8.052;2023-02-19T10:23:13;4.80;;;1.70;;
11847;SDS011;5983;49.966;8.052;2023-02-19T10:25:43;3.50;;;1.47;;
11847;SDS011;5983;49.966;8.052;2023-02-19T10:28:16;2.27;;;1.23;;
11847;SDS011;5983;49.966;8.052;2023-02-19T10:30:47;2.03;;;1.00;;
11847;SDS011;5983;49.966;8.052;2023-02-19T10:33:18;3.33;;;1.00;;
11847;SDS011;5983;49.966;8.052;2023-02-19T10:35:50;3.10;;;1.30;;
11847;SDS011;5983;49.966;8.052;2023-02-19T10:38:21;5.03;;;1.67;;
11847;SDS011;5983;49.966;8.052;2023-02-19T10:40:57;1.80;;;1.00;;
11847;SDS011;5983;49.966;8.052;2023-02-19T10:43:31;2.43;;;1.00;;
11847;SDS011;5983;49.966;8.052;2023-02-19T10:46:05;3.10;;;1.10;;
11847;SDS011;5983;49.966;8.052;2023-02-19T10:48:43;4.73;;;1.40;;
11847;SDS011;5983;49.966;8.052;2023-02-19T10:51:16;2.90;;;1.17;;
11847;SDS011;5983;49.966;8.052;2023-02-19T10:53:47;3.43;;;0.90;;
11847;SDS011;5983;49.966;8.052;2023-02-19T10:56:21;4.27;;;1.40;;
11847;SDS011;5983;49.966;8.052;2023-02-19T10:58:51;2.03;;;1.23;;
11847;SDS011;5983;49.966;8.052;2023-02-19T11:01:20;2.23;;;1.17;;
11847;SDS011;5983;49.966;8.052;2023-02-19T11:03:50;4.63;;;1.23;;
11847;SDS011;5983;49.966;8.052;2023-02-19T11:06:37;2.47;;;0.90;;
11847;SDS011;5983;49.966;8.052;2023-02-19T11:09:05;3.27;;;1.00;;
11847;SDS011;5983;49.966;8.052;2023-02-19T11:11:51;2.47;;;0.80;;
11847;SDS011;5983;49.966;8.052;2023-02-19T11:14:21;2.77;;;0.93;;
11847;SDS011;5983;49.966;8.052;2023-02-19T11:16:51;1.37;;;0.70;;
11847;SDS011;5983;49.966;8.052;2023-02-19T11:19:26;2.37;;;0.80;;
11847;SDS011;5983;49.966;8.052;2023-02-19T11:22:00;2.17;;;0.80;;
11847;SDS011;5983;49.966;8.052;2023-02-19T11:24:31;1.47;;;0.60;;
11847;SDS011;5983;49.966;8.052;2023-02-19T11:27:02;1.37;;;0.70;;
11847;SDS011;5983;49.966;8.052;2023-02-19T11:29:34;5.07;;;1.03;;
11847;SDS011;5983;49.966;8.052;2023-02-19T11:38:06;2.93;;;0.90;;
11847;SDS011;5983;49.966;8.052;2023-02-19T11:40:38;3.17;;;1.20;;
11847;SDS011;5983;49.966;8.052;2023-02-19T11:43:21;1.03;;;0.70;;
11847;SDS011;5983;49.966;8.052;2023-02-19T11:46:16;3.37;;;1.20;;
11847;SDS011;5983;49.966;8.052;2023-02-19T11:48:56;2.73;;;1.10;;
11847;SDS011;5983;49.966;8.052;2023-02-19T11:54:53;2.10;;;0.83;;
11847;SDS011;5983;49.966;8.052;2023-02-19T11:57:34;3.77;;;1.00;;
11847;SDS011;5983;49.966;8.052;2023-02-19T12:00:20;2.93;;;0.80;;
11847;SDS011;5983;49.966;8.052;2023-02-19T12:02:53;2.47;;;1.00;;
11847;SDS011;5983;49.966;8.052;2023-02-19T12:05:57;3.07;;;0.90;;
11847;SDS011;5983;49.966;8.052;2023-02-19T12:08:57;3.27;;;1.13;;
11847;SDS011;5983;49.966;8.052;2023-02-19T12:12:12;2.37;;;0.97;;
11847;SDS011;5983;49.966;8.052;2023-02-19T12:15:09;1.37;;;0.70;;
11847;SDS011;5983;49.966;8.052;2023-02-19T12:18:18;2.53;;;1.13;;
11847;SDS011;5983;49.966;8.052;2023-02-19T12:21:17;2.17;;;0.70;;
11847;SDS011;5983;49.966;8.052;2023-02-19T12:24:06;2.07;;;0.80;;
11847;SDS011;5983;49.966;8.052;2023-02-19T12:27:17;3.17;;;1.07;;
11847;SDS011;5983;49.966;8.052;2023-02-19T12:33:00;2.80;;;0.80;;
11847;SDS011;5983;49.966;8.052;2023-02-19T12:36:11;2.80;;;1.00;;
11847;SDS011;5983;49.966;8.052;2023-02-19T12:38:53;2.30;;;1.17;;
11847;SDS011;5983;49.966;8.052;2023-02-19T12:41:34;5.33;;;1.70;;
11847;SDS011;5983;49.966;8.052;2023-02-19T12:44:12;4.10;;;1.80;;
11847;SDS011;5983;49.966;8.052;2023-02-19T12:46:46;3.83;;;1.50;;
11847;SDS011;5983;49.966;8.052;2023-02-19T12:49:22;2.30;;;1.40;;
11847;SDS011;5983;49.966;8.052;2023-02-19T12:51:57;2.73;;;1.27;;
11847;SDS011;5983;49.966;8.052;2023-02-19T12:54:29;2.43;;;1.30;;
11847;SDS011;5983;49.966;8.052;2023-02-19T12:57:04;3.87;;;1.20;;
11847;SDS011;5983;49.966;8.052;2023-02-19T12:59:39;2.43;;;0.87;;
11847;SDS011;5983;49.966;8.052;2023-02-19T13:02:15;3.47;;;0.90;;
11847;SDS011;5983;49.966;8.052;2023-02-19T13:04:48;1.57;;;0.80;;
11847;SDS011;5983;49.966;8.052;2023-02-19T13:07:24;1.47;;;0.90;;
11847;SDS011;5983;49.966;8.052;2023-02-19T13:10:03;3.30;;;1.17;;
11847;SDS011;5983;49.966;8.052;2023-02-19T13:12:45;2.60;;;0.70;;
11847;SDS011;5983;49.966;8.052;2023-02-19T13:15:17;3.00;;;1.20;;
11847;SDS011;5983;49.966;8.052;2023-02-19T13:17:58;1.37;;;0.83;;
11847;SDS011;5983;49.966;8.052;2023-02-19T13:20:29;2.20;;;0.83;;
11847;SDS011;5983;49.966;8.052;2023-02-19T13:23:00;2.60;;;0.80;;
11847;SDS011;5983;49.966;8.052;2023-02-19T13:26:00;1.33;;;0.67;;
11847;SDS011;5983;49.966;8.052;2023-02-19T13:28:53;2.50;;;0.73;;
11847;SDS011;5983;49.966;8.052;2023-02-19T13:31:46;0.97;;;0.50;;
11847;SDS011;5983;49.966;8.052;2023-02-19T13:34:49;0.77;;;0.60;;
11847;SDS011;5983;49.966;8.052;2023-02-19T13:37:31;1.47;;;0.63;;
11847;SDS011;5983;49.966;8.052;2023-02-19T13:40:01;1.20;;;0.63;;
11847;SDS011;5983;49.966;8.052;2023-02-19T13:42:32;1.43;;;0.50;;
11847;SDS011;5983;49.966;8.052;2023-02-19T13:45:02;2.80;;;0.60;;
11847;SDS011;5983;49.966;8.052;2023-02-19T13:47:46;1.57;;;0.43;;
11847;SDS011;5983;49.966;8.052;2023-02-19T13:50:24;2.30;;;0.60;;
11847;SDS011;5983;49.966;8.052;2023-02-19T13:52:53;1.67;;;0.80;;
11847;SDS011;5983;49.966;8.052;2023-02-19T13:58:34;1.03;;;0.60;;
11847;SDS011;5983;49.966;8.052;2023-02-19T14:01:19;3.30;;;0.77;;
11847;SDS011;5983;49.966;8.052;2023-02-19T14:04:55;1.33;;;0.67;;
11847;SDS011;5983;49.966;8.052;2023-02-19T14:19:49;2.50;;;1.00;;
11847;SDS011;5983;49.966;8.052;2023-02-19T14:28:26;2.23;;;0.83;;
11847;SDS011;5983;49.966;8.052;2023-02-19T14:31:01;2.47;;;1.30;;
11847;SDS011;5983;49.966;8.052;2023-02-19T14:33:36;1.77;;;1.00;;
11847;SDS011;5983;49.966;8.052;2023-02-19T14:36:12;2.07;;;1.57;;
11847;SDS011;5983;49.966;8.052;2023-02-19T14:38:50;2.87;;;1.00;;
11847;SDS011;5983;49.966;8.052;2023-02-19T14:41:21;2.00;;;0.80;;
11847;SDS011;5983;49.966;8.052;2023-02-19T14:43:50;2.47;;;1.20;;
11847;SDS011;5983;49.966;8.052;2023-02-19T14:46:23;4.37;;;0.90;;
11847;SDS011;5983;49.966;8.052;2023-02-19T14:48:56;2.53;;;1.10;;
11847;SDS011;5983;49.966;8.052;2023-02-19T14:51:31;3.17;;;0.90;;
11847;SDS011;5983;49.966;8.052;2023-02-19T14:54:08;1.23;;;1.13;;
11847;SDS011;5983;49.966;8.052;2023-02-19T14:56:42;2.60;;;1.00;;
11847;SDS011;5983;49.966;8.052;2023-02-19T14:59:23;2.60;;;1.03;;
11847;SDS011;5983;49.966;8.052;2023-02-19T15:01:54;3.07;;;1.40;;
11847;SDS011;5983;49.966;8.052;2023-02-19T15:04:25;2.83;;;0.93;;
11847;SDS011;5983;49.966;8.052;2023-02-19T15:06:58;3.40;;;1.30;;
11847;SDS011;5983;49.966;8.052;2023-02-19T15:09:29;2.50;;;1.20;;
11847;SDS011;5983;49.966;8.052;2023-02-19T15:11:59;3.07;;;1.30;;
11847;SDS011;5983;49.966;8.052;2023-02-19T15:14:28;2.47;;;1.33;;
11847;SDS011;5983;49.966;8.052;2023-02-19T15:16:57;2.73;;;1.10;;
11847;SDS011;5983;49.966;8.052;2023-02-19T15:19:28;3.63;;;1.13;;
11847;SDS011;5983;49.966;8.052;2023-02-19T15:22:01;2.13;;;1.03;;
11847;SDS011;5983;49.966;8.052;2023-02-19T15:24:29;3.90;;;1.10;;
11847;SDS011;5983;49.966;8.052;2023-02-19T15:26:56;1.83;;;0.83;;
11847;SDS011;5983;49.966;8.052;2023-02-19T15:29:24;1.53;;;1.00;;
11847;SDS011;5983;49.966;8.052;2023-02-19T15:31:53;1.70;;;0.80;;
11847;SDS011;5983;49.966;8.052;2023-02-19T15:34:23;1.57;;;1.03;;
11847;SDS011;5983;49.966;8.052;2023-02-19T15:36:54;3.80;;;0.90;;
11847;SDS011;5983;49.966;8.052;2023-02-19T15:39:27;1.10;;;0.90;;
11847;SDS011;5983;49.966;8.052;2023-02-19T15:41:59;3.43;;;0.97;;
11847;SDS011;5983;49.966;8.052;2023-02-19T15:44:35;1.13;;;0.80;;
11847;SDS011;5983;49.966;8.052;2023-02-19T15:47:14;1.10;;;0.80;;
11847;SDS011;5983;49.966;8.052;2023-02-19T15:49:51;2.10;;;0.90;;
11847;SDS011;5983;49.966;8.052;2023-02-19T15:52:29;2.47;;;1.07;;
11847;SDS011;5983;49.966;8.052;2023-02-19T15:55:10;2.03;;;0.80;;
11847;SDS011;5983;49.966;8.052;2023-02-19T15:57:51;1.00;;;0.87;;
11847;SDS011;5983;49.966;8.052;2023-02-19T16:00:30;2.13;;;1.10;;
11847;SDS011;5983;49.966;8.052;2023-02-19T16:03:03;1.00;;;0.80;;
11847;SDS011;5983;49.966;8.052;2023-02-19T16:05:33;1.70;;;1.00;;
11847;SDS011;5983;49.966;8.052;2023-02-19T16:08:14;1.80;;;0.87;;
11847;SDS011;5983;49.966;8.052;2023-02-19T16:10:53;1.93;;;1.00;;
11847;SDS011;5983;49.966;8.052;2023-02-19T16:13:22;1.27;;;0.70;;